createdAt,value
2023-12-11T00:00:44.149Z,9.76
2023-12-11T00:04:51.558Z,9.77
2023-12-11T00:08:56.287Z,9.75
2023-12-11T00:13:01.116Z,9.83
2023-12-11T00:17:06.183Z,9.89
2023-12-11T00:21:13.569Z,9.90
2023-12-11T00:25:18.465Z,9.93
2023-12-11T00:29:23.231Z,9.94
2023-12-11T00:33:28.052Z,9.90
2023-12-11T00:37:35.368Z,9.91
2023-12-11T00:41:40.795Z,9.88
2023-12-11T00:45:45.556Z,9.84
2023-12-11T00:49:51.545Z,9.87
2023-12-11T00:53:58.958Z,9.89
2023-12-11T00:58:04.464Z,9.90
2023-12-11T01:02:09.197Z,9.98
2023-12-11T01:06:14.022Z,9.99
2023-12-11T01:10:21.347Z,10.08
2023-12-11T01:14:26.111Z,10.10
2023-12-11T01:18:31.035Z,10.09
2023-12-11T01:22:35.841Z,10.11
2023-12-11T01:26:43.297Z,10.13
2023-12-11T01:30:48.041Z,10.13
2023-12-11T01:34:52.874Z,10.12
2023-12-11T01:38:57.630Z,10.13
2023-12-11T01:43:19.048Z,10.12
2023-12-11T01:47:24.630Z,10.18
2023-12-11T01:51:29.606Z,10.17
2023-12-11T01:55:37.037Z,10.15
2023-12-11T01:59:47.520Z,10.21
2023-12-11T02:03:54.906Z,10.16
2023-12-11T02:08:00.130Z,10.12
2023-12-11T02:12:06.608Z,10.08
2023-12-11T02:16:17.913Z,10.12
2023-12-11T02:20:22.646Z,10.13
2023-12-11T02:24:32.090Z,10.16
2023-12-11T02:28:39.467Z,10.18
2023-12-11T02:32:44.210Z,10.20
2023-12-11T02:36:49.466Z,10.18
2023-12-11T02:40:54.306Z,10.16
2023-12-11T02:45:01.695Z,10.11
2023-12-11T02:49:06.507Z,10.10
2023-12-11T02:53:11.995Z,10.09
2023-12-11T02:57:18.228Z,10.07
2023-12-11T03:01:25.871Z,10.02
2023-12-11T03:05:30.709Z,10.08
2023-12-11T03:09:35.555Z,10.07
2023-12-11T03:13:40.318Z,10.02
2023-12-11T03:17:49.866Z,10.02
2023-12-11T03:21:57.117Z,9.97
2023-12-11T03:26:01.988Z,9.92
2023-12-11T03:30:07.298Z,9.85
2023-12-11T03:34:14.929Z,9.82
2023-12-11T03:38:19.707Z,9.80
2023-12-11T03:42:24.477Z,9.81
2023-12-11T03:46:29.245Z,9.80
2023-12-11T03:50:36.588Z,9.73
2023-12-11T03:54:41.414Z,9.71
2023-12-11T03:58:46.314Z,9.63
2023-12-11T04:02:52.326Z,9.62
2023-12-11T04:06:59.714Z,9.56
2023-12-11T04:11:04.486Z,9.50
2023-12-11T04:15:10.573Z,9.48
2023-12-11T04:19:15.629Z,9.44
2023-12-11T04:23:23.002Z,9.48
2023-12-11T04:27:27.896Z,9.43
2023-12-11T04:31:32.690Z,9.37
2023-12-11T04:35:37.381Z,9.40
2023-12-11T04:39:44.841Z,9.38
2023-12-11T04:43:51.859Z,9.33
2023-12-11T04:47:56.702Z,9.32
2023-12-11T04:52:01.535Z,9.32
2023-12-11T04:56:12.739Z,9.33
2023-12-11T05:00:18.919Z,9.36
2023-12-11T05:04:23.782Z,9.37
2023-12-11T05:08:30.449Z,9.37
2023-12-11T05:12:38.176Z,9.39
2023-12-11T05:16:42.864Z,9.42
2023-12-11T05:20:47.709Z,9.37
2023-12-11T05:24:52.591Z,9.42
2023-12-11T05:29:01.734Z,9.39
2023-12-11T05:33:06.798Z,9.46
2023-12-11T05:37:11.669Z,9.45
2023-12-11T05:41:16.633Z,9.48
2023-12-11T05:45:24.055Z,9.51
2023-12-11T05:49:28.875Z,9.45
2023-12-11T05:53:33.670Z,9.46
2023-12-11T05:57:38.520Z,9.49
2023-12-11T06:01:46.025Z,9.50
2023-12-11T06:05:52.592Z,9.49
2023-12-11T06:09:57.389Z,9.49
2023-12-11T06:14:02.246Z,9.42
2023-12-11T06:18:11.193Z,9.43
2023-12-11T06:22:16.088Z,9.42
2023-12-11T06:26:32.700Z,9.42
2023-12-11T06:30:37.705Z,9.38
2023-12-11T06:34:45.230Z,9.39
2023-12-11T06:38:51.285Z,9.42
2023-12-11T06:42:56.055Z,9.36
2023-12-11T06:47:00.918Z,9.39
2023-12-11T06:51:08.432Z,9.39
2023-12-11T06:55:13.240Z,9.40
2023-12-11T06:59:18.000Z,9.43
2023-12-11T07:03:22.819Z,9.40
2023-12-11T07:07:30.493Z,9.39
2023-12-11T07:11:35.487Z,9.41
2023-12-11T07:15:40.379Z,9.40
2023-12-11T07:19:45.188Z,9.34
2023-12-11T07:23:53.388Z,9.29
2023-12-11T07:27:58.216Z,9.33
2023-12-11T07:32:02.951Z,9.32
2023-12-11T07:36:08.799Z,9.31
2023-12-11T07:40:16.469Z,9.29
2023-12-11T07:44:21.796Z,9.29
2023-12-11T07:48:26.651Z,9.26
2023-12-11T07:52:32.193Z,9.23
2023-12-11T07:56:39.635Z,9.23
2023-12-11T08:00:44.443Z,9.23
2023-12-11T08:04:49.776Z,9.25
2023-12-11T08:08:54.707Z,9.26
2023-12-11T08:13:02.076Z,9.23
2023-12-11T08:17:12.067Z,9.24
2023-12-11T08:21:17.863Z,9.22
2023-12-11T08:25:23.223Z,9.24
2023-12-11T08:29:30.575Z,9.27
2023-12-11T08:33:35.425Z,9.28
2023-12-11T08:37:40.439Z,9.29
2023-12-11T08:41:45.269Z,9.22
2023-12-11T08:45:52.609Z,9.21
2023-12-11T08:50:00.478Z,9.22
2023-12-11T08:54:05.381Z,9.23
2023-12-11T08:58:10.468Z,9.24
2023-12-11T09:02:17.998Z,9.22
2023-12-11T09:06:24.334Z,9.15
2023-12-11T09:10:29.179Z,9.14
2023-12-11T09:14:33.946Z,9.14
2023-12-11T09:18:41.479Z,9.13
2023-12-11T09:22:47.517Z,9.10
2023-12-11T09:26:52.200Z,9.12
2023-12-11T09:30:56.983Z,9.08
2023-12-11T09:35:04.437Z,9.07
2023-12-11T09:39:09.461Z,9.10
2023-12-11T09:43:14.357Z,9.03
2023-12-11T09:47:23.994Z,9.04
2023-12-11T09:51:31.394Z,9.06
2023-12-11T09:55:36.178Z,9.06
2023-12-11T09:59:41.633Z,9.05
2023-12-11T10:03:46.555Z,9.10
2023-12-11T10:07:54.074Z,9.13
2023-12-11T10:12:04.605Z,9.08
2023-12-11T10:16:30.918Z,9.08
2023-12-11T10:20:36.759Z,9.07
2023-12-11T10:24:48.443Z,9.18
2023-12-11T10:28:53.188Z,9.25
2023-12-11T10:33:04.365Z,9.32
2023-12-11T10:37:09.776Z,9.37
2023-12-11T10:41:29.413Z,9.44
2023-12-11T10:45:35.523Z,9.46
2023-12-11T10:49:40.972Z,9.43
2023-12-11T10:53:48.454Z,9.49
2023-12-11T10:57:57.446Z,9.47
2023-12-11T11:02:04.320Z,9.42
2023-12-11T11:06:11.039Z,9.44
2023-12-11T11:10:22.565Z,9.44
2023-12-11T11:14:51.471Z,9.39
2023-12-11T11:19:10.483Z,9.32
2023-12-11T11:23:28.492Z,9.33
2023-12-11T11:27:43.997Z,9.36
2023-12-11T11:31:55.759Z,9.37
2023-12-11T11:36:05.668Z,9.42
2023-12-11T11:40:12.233Z,9.43
2023-12-11T11:44:18.791Z,9.40
2023-12-11T11:48:44.102Z,9.44
2023-12-11T11:52:52.211Z,9.47
2023-12-11T11:56:57.488Z,9.48
2023-12-11T12:01:07.451Z,9.46
2023-12-11T12:05:15.583Z,9.38
2023-12-11T12:09:21.556Z,9.35
2023-12-11T12:13:28.690Z,9.39
2023-12-11T12:17:34.157Z,9.52
2023-12-11T12:21:55.587Z,9.47
2023-12-11T12:26:01.773Z,9.47
2023-12-11T12:30:07.499Z,9.40
2023-12-11T12:34:12.643Z,9.33
2023-12-11T12:38:20.620Z,9.28
2023-12-11T12:42:25.502Z,9.33
2023-12-11T12:46:30.794Z,9.27
2023-12-11T12:50:35.599Z,9.15
2023-12-11T12:54:57.840Z,9.24
2023-12-11T12:59:06.952Z,9.33
2023-12-11T13:03:11.730Z,9.29
2023-12-11T13:07:18.626Z,9.32
2023-12-11T13:11:41.828Z,9.22
2023-12-11T13:15:46.605Z,9.20
2023-12-11T13:19:51.652Z,9.03
2023-12-11T13:23:58.338Z,8.95
2023-12-11T13:28:07.513Z,8.93
2023-12-11T13:32:14.234Z,8.87
2023-12-11T13:36:19.224Z,8.85
2023-12-11T13:40:24.787Z,8.85
2023-12-11T13:44:32.206Z,8.92
2023-12-11T13:48:38.266Z,8.83
2023-12-11T13:52:43.101Z,8.91
2023-12-11T13:56:49.206Z,8.90
2023-12-11T14:00:56.878Z,8.95
2023-12-11T14:05:01.816Z,8.90
2023-12-11T14:09:07.119Z,8.95
2023-12-11T14:13:14.741Z,8.81
2023-12-11T14:17:22.143Z,8.69
2023-12-11T14:21:26.925Z,8.61
2023-12-11T14:25:32.185Z,8.47
2023-12-11T14:29:37.019Z,8.44
2023-12-11T14:33:44.763Z,8.34
2023-12-11T14:37:49.677Z,8.30
2023-12-11T14:41:55.376Z,8.19
2023-12-11T14:46:00.851Z,8.17
2023-12-11T14:50:09.823Z,8.19
2023-12-11T14:54:14.898Z,8.21
2023-12-11T14:58:19.700Z,8.26
2023-12-11T15:02:24.569Z,8.31
2023-12-11T15:06:32.065Z,8.33
2023-12-11T15:10:36.841Z,8.28
2023-12-11T15:14:41.571Z,8.15
2023-12-11T15:18:48.115Z,8.06
2023-12-11T15:22:57.072Z,8.02
2023-12-11T15:27:01.806Z,7.96
2023-12-11T15:31:13.301Z,7.93
2023-12-11T15:35:19.647Z,7.90
2023-12-11T15:39:26.930Z,7.91
2023-12-11T15:43:31.702Z,7.93
2023-12-11T15:47:59.861Z,7.92
2023-12-11T15:52:01.285Z,7.87
2023-12-11T15:56:09.485Z,7.85
2023-12-11T16:00:15.501Z,7.80
2023-12-11T16:04:20.257Z,7.82
2023-12-11T16:08:25.376Z,7.82
2023-12-11T16:12:32.771Z,7.82
2023-12-11T16:16:40.058Z,7.80
2023-12-11T16:20:45.596Z,7.76
2023-12-11T16:24:50.417Z,7.74
2023-12-11T16:28:57.808Z,7.67
2023-12-11T16:33:02.797Z,7.61
2023-12-11T16:37:08.062Z,7.51
2023-12-11T16:41:13.511Z,7.45
2023-12-11T16:45:21.181Z,7.39
2023-12-11T16:49:26.070Z,7.33
2023-12-11T16:53:30.841Z,7.28
2023-12-11T16:57:35.624Z,7.19
2023-12-11T17:01:43.077Z,7.06
2023-12-11T17:05:47.975Z,6.97
2023-12-11T17:09:55.024Z,6.97
2023-12-11T17:13:59.789Z,6.96
2023-12-11T17:18:08.215Z,6.94
2023-12-11T17:22:13.042Z,6.92
2023-12-11T17:26:17.890Z,6.96
2023-12-11T17:30:22.864Z,6.97
2023-12-11T17:34:30.557Z,6.97
2023-12-11T17:38:35.422Z,6.97
2023-12-11T17:42:40.312Z,6.98
2023-12-11T17:46:47.952Z,6.94
2023-12-11T17:50:55.298Z,6.95
2023-12-11T17:55:00.100Z,6.95
2023-12-11T17:59:04.891Z,6.92
2023-12-11T18:03:09.639Z,6.88
2023-12-11T18:07:17.078Z,6.85
2023-12-11T18:11:21.786Z,6.84
2023-12-11T18:15:26.668Z,6.82
2023-12-11T18:19:31.501Z,6.83
2023-12-11T18:23:39.549Z,6.84
2023-12-11T18:27:44.322Z,6.89
2023-12-11T18:31:49.090Z,6.96
2023-12-11T18:35:53.862Z,6.98
2023-12-11T18:40:01.439Z,7.00
2023-12-11T18:44:06.224Z,7.03
2023-12-11T18:48:12.144Z,7.01
2023-12-11T18:52:18.708Z,7.03
2023-12-11T18:56:27.409Z,7.04
2023-12-11T19:00:32.246Z,6.99
2023-12-11T19:04:37.524Z,6.95
2023-12-11T19:08:42.403Z,6.89
2023-12-11T19:12:50.623Z,6.84
2023-12-11T19:16:55.517Z,6.82
2023-12-11T19:21:00.223Z,6.82
2023-12-11T19:25:04.974Z,6.86
2023-12-11T19:29:12.478Z,6.91
2023-12-11T19:33:17.608Z,6.94
2023-12-11T19:37:22.645Z,6.93
2023-12-11T19:41:27.399Z,6.86
2023-12-11T19:45:34.894Z,6.83
2023-12-11T19:49:39.655Z,6.75
2023-12-11T19:53:44.552Z,6.70
2023-12-11T19:57:49.380Z,6.66
2023-12-11T20:01:56.813Z,6.63
2023-12-11T20:06:01.670Z,6.56
2023-12-11T20:10:08.303Z,6.51
2023-12-11T20:14:13.195Z,6.52
2023-12-11T20:18:20.585Z,6.58
2023-12-11T20:22:25.653Z,6.63
2023-12-11T20:26:30.397Z,6.67
2023-12-11T20:30:35.248Z,6.71
2023-12-11T20:34:43.365Z,6.75
2023-12-11T20:38:48.582Z,6.75
2023-12-11T20:42:53.597Z,6.74
2023-12-11T20:46:58.452Z,6.74
2023-12-11T20:51:09.512Z,6.74
2023-12-11T20:55:14.665Z,6.72
2023-12-11T20:59:19.459Z,6.72
2023-12-11T21:03:24.293Z,6.75
2023-12-11T21:07:31.862Z,6.76
2023-12-11T21:11:38.093Z,6.79
2023-12-11T21:15:43.047Z,6.78
2023-12-11T21:19:47.806Z,6.80
2023-12-11T21:23:55.303Z,6.79
2023-12-11T21:28:00.083Z,6.74
2023-12-11T21:32:05.643Z,6.72
2023-12-11T21:36:10.896Z,6.70
2023-12-11T21:40:18.993Z,6.69
2023-12-11T21:44:23.984Z,6.74
2023-12-11T21:48:28.821Z,6.81
2023-12-11T21:52:33.669Z,6.85
2023-12-11T21:56:42.267Z,6.91
2023-12-11T22:00:47.056Z,6.93
2023-12-11T22:04:52.013Z,6.98
2023-12-11T22:08:56.917Z,7.04
2023-12-11T22:13:04.329Z,7.06
2023-12-11T22:17:09.100Z,7.11
2023-12-11T22:21:13.812Z,7.15
2023-12-11T22:25:18.801Z,7.20
2023-12-11T22:29:26.303Z,7.25
2023-12-11T22:33:31.057Z,7.32
2023-12-11T22:37:36.293Z,7.38
2023-12-11T22:41:41.087Z,7.39
2023-12-11T22:45:48.539Z,7.44
2023-12-11T22:49:53.288Z,7.49
2023-12-11T22:53:58.198Z,7.54
2023-12-11T22:58:13.507Z,7.56
2023-12-11T23:02:23.785Z,7.60
2023-12-11T23:06:28.519Z,7.64
2023-12-11T23:10:33.335Z,7.70
2023-12-11T23:14:38.076Z,7.73
2023-12-11T23:18:45.557Z,7.77
2023-12-11T23:22:50.297Z,7.81
2023-12-11T23:26:55.069Z,7.83
2023-12-11T23:30:59.795Z,7.85
2023-12-11T23:35:08.149Z,7.86
2023-12-11T23:39:13.037Z,7.88
2023-12-11T23:43:17.916Z,7.90
2023-12-11T23:47:22.772Z,7.89
2023-12-11T23:51:30.244Z,7.89
2023-12-11T23:55:34.962Z,7.93
2023-12-11T23:59:40.067Z,7.93
